createdAt,value
2023-03-21T00:02:41.451Z,3.17
2023-03-21T00:05:29.259Z,3.47
2023-03-21T00:08:16.846Z,2.97
2023-03-21T00:11:06.364Z,3.43
2023-03-21T00:13:58.827Z,2.73
2023-03-21T00:16:50.450Z,3.33
2023-03-21T00:19:38.981Z,4.07
2023-03-21T00:22:27.564Z,4.83
2023-03-21T00:25:15.259Z,3.03
2023-03-21T00:28:08.359Z,3.13
2023-03-21T00:31:00.369Z,5.53
2023-03-21T00:33:47.638Z,4.00
2023-03-21T00:36:35.543Z,6.37
2023-03-21T00:39:23.070Z,4.97
2023-03-21T00:42:11.164Z,3.07
2023-03-21T00:44:58.628Z,3.17
2023-03-21T00:47:46.641Z,4.53
2023-03-21T00:50:34.648Z,3.27
2023-03-21T00:53:22.526Z,4.03
2023-03-21T00:56:10.579Z,3.23
2023-03-21T00:58:58.386Z,4.90
2023-03-21T01:01:46.754Z,4.90
2023-03-21T01:04:35.262Z,4.67
2023-03-21T01:07:22.658Z,3.63
2023-03-21T01:10:11.843Z,3.43
2023-03-21T01:12:59.621Z,5.40
2023-03-21T01:15:51.993Z,6.40
2023-03-21T01:18:40.315Z,4.20
2023-03-21T01:21:28.085Z,5.73
2023-03-21T01:24:16.125Z,4.53
2023-03-21T01:27:04.600Z,3.57
2023-03-21T01:29:52.009Z,4.10
2023-03-21T01:32:39.856Z,4.63
2023-03-21T01:35:30.046Z,4.07
2023-03-21T01:38:19.533Z,3.30
2023-03-21T01:41:18.662Z,3.30
2023-03-21T01:44:06.920Z,2.73
2023-03-21T01:47:12.454Z,3.57
2023-03-21T01:50:01.775Z,2.90
2023-03-21T01:52:50.584Z,4.17
2023-03-21T01:55:39.041Z,5.43
2023-03-21T01:58:27.280Z,4.00
2023-03-21T02:01:15.911Z,5.33
2023-03-21T03:39:05.100Z,5.17
2023-03-21T03:42:10.190Z,7.10
2023-03-21T03:45:03.299Z,3.50
2023-03-21T03:48:00.433Z,3.30
2023-03-21T03:50:54.607Z,5.17
2023-03-21T03:53:44.403Z,3.83
2023-03-21T03:56:32.514Z,5.10
2023-03-21T03:59:22.429Z,3.77
2023-03-21T04:02:10.262Z,5.13
2023-03-21T04:04:58.236Z,4.10
2023-03-21T04:07:46.671Z,4.53
2023-03-21T04:10:34.499Z,4.77
2023-03-21T04:13:21.854Z,2.93
2023-03-21T04:16:10.107Z,3.00
2023-03-21T04:18:58.019Z,3.67
2023-03-21T04:21:46.420Z,4.80
2023-03-21T04:24:34.429Z,3.37
2023-03-21T04:27:21.884Z,3.10
2023-03-21T04:30:12.598Z,3.73
2023-03-21T04:33:01.590Z,2.90
2023-03-21T04:35:48.890Z,3.67
2023-03-21T04:38:37.596Z,4.20
2023-03-21T04:41:24.969Z,3.70
2023-03-21T04:44:13.524Z,4.03
2023-03-21T04:47:01.437Z,4.23
2023-03-21T04:49:48.701Z,2.93
2023-03-21T04:52:36.614Z,3.23
2023-03-21T04:55:27.090Z,4.40
2023-03-21T04:58:14.511Z,9.70
2023-03-21T05:01:02.916Z,4.17
2023-03-21T05:03:50.866Z,4.60
2023-03-21T05:06:38.807Z,3.90
2023-03-21T05:09:26.543Z,3.77
2023-03-21T05:12:13.941Z,3.80
2023-03-21T05:15:01.989Z,3.43
2023-03-21T05:17:49.288Z,6.07
2023-03-21T05:20:36.562Z,4.27
2023-03-21T05:23:25.067Z,4.50
2023-03-21T05:26:12.340Z,7.00
2023-03-21T05:29:00.294Z,4.37
2023-03-21T05:31:47.587Z,5.43
2023-03-21T05:34:35.529Z,4.63
2023-03-21T05:37:23.021Z,3.90
2023-03-21T05:40:11.647Z,4.00
2023-03-21T05:42:59.080Z,6.23
2023-03-21T05:45:48.722Z,5.43
2023-03-21T05:48:36.800Z,3.37
2023-03-21T05:51:24.031Z,3.90
2023-03-21T05:54:17.063Z,3.73
2023-03-21T05:57:05.117Z,5.27
2023-03-21T05:59:53.008Z,6.00
2023-03-21T06:02:40.473Z,6.63
2023-03-21T06:05:28.292Z,5.23
2023-03-21T06:08:16.232Z,4.77
2023-03-21T06:11:03.847Z,4.13
2023-03-21T06:13:51.740Z,5.50
2023-03-21T06:16:38.996Z,5.47
2023-03-21T06:19:26.834Z,3.87
2023-03-21T06:22:14.237Z,6.03
2023-03-21T06:25:01.682Z,4.07
2023-03-21T06:27:49.414Z,4.47
2023-03-21T06:30:37.035Z,3.93
2023-03-21T06:33:24.534Z,6.33
2023-03-21T06:36:12.523Z,5.00
2023-03-21T06:38:59.963Z,3.93
2023-03-21T06:41:47.701Z,3.87
2023-03-21T06:44:34.961Z,4.37
2023-03-21T06:47:22.733Z,4.43
2023-03-21T06:50:11.048Z,4.00
2023-03-21T06:52:59.832Z,5.80
2023-03-21T06:55:54.169Z,4.73
2023-03-21T06:58:42.353Z,6.57
2023-03-21T07:01:30.688Z,3.73
2023-03-21T07:04:18.461Z,5.60
2023-03-21T07:07:05.795Z,3.23
2023-03-21T07:09:53.705Z,4.27
2023-03-21T07:12:41.071Z,5.63
2023-03-21T07:15:28.977Z,8.30
2023-03-21T07:18:16.444Z,3.43
2023-03-21T07:21:04.620Z,5.17
2023-03-21T07:24:10.830Z,8.20
2023-03-21T07:26:58.642Z,4.23
2023-03-21T07:29:47.398Z,4.23
2023-03-21T07:32:35.976Z,3.83
2023-03-21T07:35:23.281Z,4.80
2023-03-21T07:38:11.380Z,3.83
2023-03-21T07:40:59.633Z,3.60
2023-03-21T07:43:47.734Z,6.80
2023-03-21T07:46:35.208Z,4.53
2023-03-21T07:49:23.172Z,3.30
2023-03-21T07:52:11.179Z,4.67
2023-03-21T07:54:58.575Z,3.40
2023-03-21T07:57:48.176Z,3.80
2023-03-21T08:00:35.749Z,3.43
2023-03-21T08:03:24.558Z,8.00
2023-03-21T08:06:12.279Z,6.17
2023-03-21T08:09:00.255Z,6.43
2023-03-21T08:11:47.719Z,6.17
2023-03-21T08:14:36.482Z,4.60
2023-03-21T08:17:28.066Z,5.50
2023-03-21T08:20:22.072Z,4.13
2023-03-21T08:23:15.984Z,5.23
2023-03-21T08:26:08.688Z,5.30
2023-03-21T08:28:56.700Z,6.07
2023-03-21T08:31:44.935Z,7.00
2023-03-21T08:34:32.785Z,5.43
2023-03-21T08:37:20.955Z,7.27
2023-03-21T08:40:11.429Z,5.30
2023-03-21T08:42:59.399Z,4.43
2023-03-21T08:45:46.847Z,5.90
2023-03-21T08:48:34.982Z,4.60
2023-03-21T08:51:22.438Z,5.37
2023-03-21T08:54:17.455Z,4.80
2023-03-21T08:57:04.986Z,7.07
2023-03-21T08:59:52.865Z,6.27
2023-03-21T09:02:40.431Z,5.57
2023-03-21T09:05:28.884Z,7.00
2023-03-21T09:08:36.246Z,3.43
2023-03-21T09:11:24.165Z,3.77
2023-03-21T09:14:12.304Z,5.57
2023-03-21T09:16:59.679Z,3.93
2023-03-21T09:19:48.318Z,3.33
2023-03-21T09:22:36.307Z,5.80
2023-03-21T09:25:25.097Z,4.07
2023-03-21T09:28:13.167Z,4.07
2023-03-21T09:31:02.627Z,4.33
2023-03-21T09:33:50.960Z,3.40
2023-03-21T09:36:39.253Z,3.83
2023-03-21T09:39:27.122Z,5.40
2023-03-21T09:42:25.489Z,3.75
2023-03-21T09:45:19.999Z,3.75
2023-03-21T09:48:20.176Z,8.13
2023-03-21T09:51:11.833Z,2.92
2023-03-21T09:54:02.269Z,3.40
2023-03-21T09:56:51.285Z,11.30
2023-03-21T09:59:41.788Z,2.90
2023-03-21T10:02:36.078Z,4.15
2023-03-21T10:05:29.649Z,6.53
2023-03-21T10:08:24.894Z,3.40
2023-03-21T10:11:15.470Z,3.05
2023-03-21T10:14:06.360Z,2.28
2023-03-21T10:16:58.101Z,3.13
2023-03-21T10:19:48.546Z,4.38
2023-03-21T10:22:35.912Z,2.75
2023-03-21T10:25:27.053Z,4.85
2023-03-21T10:28:17.558Z,2.08
2023-03-21T10:31:07.529Z,2.50
2023-03-21T10:33:56.742Z,2.88
2023-03-21T10:36:44.838Z,2.67
2023-03-21T10:39:37.085Z,3.38
2023-03-21T10:42:26.446Z,2.78
2023-03-21T10:45:19.247Z,4.70
2023-03-21T10:48:08.735Z,3.60
2023-03-21T10:50:56.543Z,2.60
2023-03-21T10:53:47.834Z,4.45
2023-03-21T10:56:39.704Z,1.60
2023-03-21T10:59:29.956Z,4.72
2023-03-21T11:02:20.427Z,5.28
2023-03-21T11:05:23.308Z,3.25
2023-03-21T11:08:15.525Z,2.60
2023-03-21T11:11:05.162Z,1.98
2023-03-21T11:14:00.996Z,4.43
2023-03-21T11:16:48.421Z,2.80
2023-03-21T11:19:37.469Z,3.30
2023-03-21T11:22:26.887Z,2.63
2023-03-21T11:25:37.993Z,2.50
2023-03-21T11:28:29.059Z,2.78
2023-03-21T11:31:18.168Z,2.45
2023-03-21T11:34:09.750Z,4.07
2023-03-21T11:37:01.744Z,2.10
2023-03-21T11:39:55.551Z,3.03
2023-03-21T11:42:51.089Z,2.65
2023-03-21T11:45:39.740Z,2.83
2023-03-21T11:48:28.286Z,3.45
2023-03-21T11:51:21.945Z,3.13
2023-03-21T11:54:28.671Z,2.45
2023-03-21T11:57:34.376Z,1.70
2023-03-21T12:00:26.429Z,3.05
2023-03-21T12:03:16.929Z,2.25
2023-03-21T12:06:06.599Z,2.08
2023-03-21T12:08:54.390Z,2.00
2023-03-21T12:11:48.352Z,3.42
2023-03-21T12:14:38.710Z,2.53
2023-03-21T12:17:29.168Z,4.10
2023-03-21T12:20:52.841Z,2.13
2023-03-21T12:24:02.504Z,3.10
2023-03-21T12:27:09.529Z,2.05
2023-03-21T12:30:04.713Z,2.17
2023-03-21T12:33:00.809Z,1.80
2023-03-21T12:35:54.902Z,1.73
2023-03-21T12:38:45.559Z,2.85
2023-03-21T12:41:41.780Z,2.25
2023-03-21T12:44:32.834Z,1.45
2023-03-21T12:47:28.091Z,2.03
2023-03-21T12:50:19.477Z,2.33
2023-03-21T12:53:28.304Z,2.00
2023-03-21T12:56:24.482Z,3.28
2023-03-21T12:59:19.564Z,2.80
2023-03-21T13:02:26.286Z,2.45
2023-03-21T13:05:32.409Z,1.58
2023-03-21T13:08:19.796Z,2.65
2023-03-21T13:11:08.695Z,1.67
2023-03-21T13:14:13.607Z,2.13
2023-03-21T13:17:22.593Z,3.42
2023-03-21T13:20:40.352Z,2.90
2023-03-21T13:23:34.872Z,2.55
2023-03-21T13:26:23.302Z,2.88
2023-03-21T13:29:23.522Z,5.63
2023-03-21T13:32:46.919Z,2.47
2023-03-21T13:35:38.199Z,2.42
2023-03-21T13:38:31.083Z,2.00
2023-03-21T13:41:22.029Z,3.30
2023-03-21T13:44:16.966Z,2.40
2023-03-21T13:47:06.112Z,4.25
2023-03-21T13:50:12.266Z,2.25
2023-03-21T13:53:02.392Z,3.45
2023-03-21T13:55:59.574Z,1.85
2023-03-21T13:58:47.448Z,2.47
2023-03-21T14:01:36.430Z,3.03
2023-03-21T14:04:32.043Z,3.38
2023-03-21T14:07:38.250Z,3.08
2023-03-21T14:10:35.513Z,2.13
2023-03-21T14:13:25.552Z,1.95
2023-03-21T14:16:15.828Z,4.18
2023-03-21T14:19:04.856Z,4.22
2023-03-21T14:21:54.402Z,3.13
2023-03-21T14:24:47.546Z,2.10
2023-03-21T14:27:38.205Z,3.00
2023-03-21T14:30:31.041Z,5.72
2023-03-21T14:33:23.566Z,5.03
2023-03-21T14:36:15.452Z,2.47
2023-03-21T14:39:07.142Z,3.00
2023-03-21T14:41:56.372Z,2.28
2023-03-21T14:44:55.208Z,3.60
2023-03-21T14:47:54.683Z,3.22
2023-03-21T14:50:46.730Z,3.20
2023-03-21T14:53:37.900Z,2.00
2023-03-21T14:56:26.987Z,2.30
2023-03-21T14:59:15.927Z,2.90
2023-03-21T15:02:14.100Z,2.20
2023-03-21T15:05:15.927Z,5.22
2023-03-21T15:08:08.605Z,5.85
2023-03-21T15:11:07.712Z,3.20
2023-03-21T15:13:56.239Z,2.50
2023-03-21T15:16:44.375Z,4.15
2023-03-21T15:19:34.366Z,3.00
2023-03-21T15:22:54.055Z,3.42
2023-03-21T15:25:42.422Z,2.95
2023-03-21T15:28:29.932Z,6.40
2023-03-21T15:31:21.768Z,3.03
2023-03-21T15:34:18.512Z,2.85
2023-03-21T15:37:07.782Z,2.95
2023-03-21T15:40:09.824Z,2.80
2023-03-21T15:43:17.563Z,3.53
2023-03-21T15:46:13.609Z,3.65
2023-03-21T15:49:10.130Z,4.93
2023-03-21T15:52:00.744Z,2.70
2023-03-21T15:54:59.820Z,3.10
2023-03-21T15:57:47.951Z,4.45
2023-03-21T16:00:42.429Z,3.38
2023-03-21T16:03:38.046Z,3.03
2023-03-21T16:06:33.671Z,4.72
2023-03-21T16:09:24.485Z,4.30
2023-03-21T16:12:13.207Z,3.97
2023-03-21T16:15:01.167Z,3.72
2023-03-21T16:17:54.004Z,3.90
2023-03-21T16:20:44.527Z,3.00
2023-03-21T16:23:31.969Z,2.53
2023-03-21T16:26:24.264Z,3.30
2023-03-21T16:29:13.066Z,3.55
2023-03-21T16:32:06.547Z,3.75
2023-03-21T16:34:54.005Z,4.90
2023-03-21T16:37:42.072Z,3.58
2023-03-21T16:40:31.393Z,3.80
2023-03-21T16:43:19.261Z,4.65
2023-03-21T16:46:07.434Z,3.83
2023-03-21T16:48:56.404Z,3.50
2023-03-21T16:51:43.806Z,6.10
2023-03-21T16:54:31.841Z,3.47
2023-03-21T16:57:29.650Z,2.90
2023-03-21T17:00:23.487Z,3.92
2023-03-21T17:03:18.196Z,3.65
2023-03-21T17:06:06.577Z,4.82
2023-03-21T17:08:54.969Z,9.27
2023-03-21T17:11:43.469Z,5.82
2023-03-21T17:14:30.900Z,7.22
2023-03-21T17:17:18.843Z,7.03
2023-03-21T17:20:45.991Z,5.15
2023-03-21T17:23:33.494Z,9.55
2023-03-21T17:26:25.337Z,10.77
2023-03-21T17:29:16.551Z,5.88
2023-03-21T17:32:03.937Z,13.07
2023-03-21T17:34:53.190Z,7.65
2023-03-21T17:37:41.188Z,8.38
2023-03-21T17:40:29.546Z,8.50
2023-03-21T17:43:19.236Z,7.45
2023-03-21T17:46:06.824Z,4.82
2023-03-21T17:48:54.909Z,5.50
2023-03-21T17:51:43.613Z,5.53
2023-03-21T17:54:31.161Z,4.53
2023-03-21T17:57:18.570Z,6.57
2023-03-21T18:00:13.195Z,4.07
2023-03-21T18:03:00.643Z,4.80
2023-03-21T18:05:48.356Z,5.53
2023-03-21T18:08:36.289Z,5.60
2023-03-21T18:11:24.541Z,6.77
2023-03-21T18:14:18.818Z,8.73
2023-03-21T18:17:06.700Z,5.97
2023-03-21T18:19:55.864Z,8.00
2023-03-21T18:22:43.692Z,7.22
2023-03-21T18:25:31.928Z,4.80
2023-03-21T18:28:21.267Z,8.17
2023-03-21T18:31:15.606Z,6.73
2023-03-21T18:34:04.223Z,6.47
2023-03-21T18:36:54.542Z,5.90
2023-03-21T18:39:44.463Z,9.43
2023-03-21T18:42:32.403Z,14.80
2023-03-21T18:45:20.918Z,15.27
2023-03-21T18:48:08.910Z,8.63
2023-03-21T18:50:56.667Z,13.13
2023-03-21T18:53:45.197Z,7.40
2023-03-21T18:57:31.741Z,7.37
2023-03-21T18:59:41.076Z,8.83
2023-03-21T19:02:28.480Z,8.23
2023-03-21T19:05:20.114Z,5.07
2023-03-21T19:08:07.926Z,6.50
2023-03-21T19:10:59.588Z,7.27
2023-03-21T19:13:48.891Z,6.17
2023-03-21T19:16:56.281Z,5.10
2023-03-21T19:19:44.923Z,7.10
2023-03-21T19:22:32.790Z,7.83
2023-03-21T19:25:20.800Z,5.93
2023-03-21T19:28:08.423Z,4.00
2023-03-21T19:30:56.393Z,5.03
2023-03-21T19:33:43.836Z,6.57
2023-03-21T19:36:34.581Z,5.17
2023-03-21T19:39:22.767Z,6.90
2023-03-21T19:42:16.775Z,5.77
2023-03-21T19:45:05.748Z,4.47
2023-03-21T19:47:53.751Z,5.33
2023-03-21T19:51:03.455Z,5.40
2023-03-21T19:53:49.112Z,7.80
2023-03-21T19:56:37.807Z,6.90
2023-03-21T19:59:25.660Z,5.47
2023-03-21T20:02:33.900Z,6.00
2023-03-21T20:05:22.485Z,6.53
2023-03-21T20:08:11.073Z,8.00
2023-03-21T20:10:59.095Z,7.17
2023-03-21T20:13:47.962Z,9.03
2023-03-21T20:16:37.302Z,9.97
2023-03-21T20:19:25.349Z,11.97
2023-03-21T20:22:24.502Z,8.87
2023-03-21T20:25:16.018Z,10.43
2023-03-21T20:28:15.696Z,13.63
2023-03-21T20:31:04.966Z,13.73
2023-03-21T20:33:53.614Z,13.97
2023-03-21T20:36:43.503Z,18.40
2023-03-21T20:39:31.520Z,9.83
2023-03-21T20:42:19.809Z,8.10
2023-03-21T20:45:08.228Z,10.90
2023-03-21T20:47:56.271Z,8.07
2023-03-21T20:50:44.942Z,12.27
2023-03-21T20:53:32.806Z,11.13
2023-03-21T20:56:21.327Z,11.03
2023-03-21T20:59:26.621Z,10.17
2023-03-21T21:02:16.283Z,7.53
2023-03-21T21:08:19.026Z,7.30
2023-03-21T21:11:56.917Z,5.63
2023-03-21T21:14:15.118Z,7.10
2023-03-21T21:17:20.960Z,7.53
2023-03-21T21:20:18.021Z,4.83
2023-03-21T21:23:05.714Z,5.37
2023-03-21T21:25:53.865Z,7.43
2023-03-21T21:28:43.506Z,6.27
2023-03-21T21:31:35.098Z,4.63
2023-03-21T21:34:22.528Z,4.60
2023-03-21T21:37:09.969Z,4.57
2023-03-21T21:39:57.363Z,5.67
2023-03-21T21:42:46.046Z,4.07
2023-03-21T21:45:33.566Z,4.97
2023-03-21T21:48:21.379Z,3.87
2023-03-21T21:51:09.628Z,4.33
2023-03-21T21:53:57.429Z,5.70
2023-03-21T21:56:48.843Z,4.77
2023-03-21T21:59:36.244Z,4.60
2023-03-21T22:02:24.843Z,5.47
2023-03-21T22:05:12.248Z,4.47
2023-03-21T22:08:00.255Z,5.33
2023-03-21T22:10:48.522Z,4.23
2023-03-21T22:13:35.931Z,6.17
2023-03-21T22:16:23.481Z,4.93
2023-03-21T22:19:11.501Z,7.37
2023-03-21T22:21:59.076Z,5.57
2023-03-21T22:24:46.533Z,5.87
2023-03-21T22:27:34.171Z,7.07
2023-03-21T22:30:21.520Z,9.57
2023-03-21T22:33:10.239Z,5.43
2023-03-21T22:35:57.747Z,6.43
2023-03-21T22:38:45.602Z,4.67
2023-03-21T22:41:33.022Z,5.00
2023-03-21T22:44:21.432Z,5.60
2023-03-21T22:47:10.882Z,7.33
2023-03-21T22:49:58.846Z,5.07
2023-03-21T22:52:46.323Z,4.97
2023-03-21T22:55:34.296Z,5.83
2023-03-21T22:58:21.901Z,7.93
2023-03-21T23:01:09.837Z,5.57
2023-03-21T23:03:57.457Z,6.20
2023-03-21T23:06:46.195Z,11.67
2023-03-21T23:09:34.075Z,7.73
2023-03-21T23:12:21.544Z,7.77
2023-03-21T23:15:09.659Z,5.43
2023-03-21T23:17:57.424Z,8.23
2023-03-21T23:20:44.907Z,6.50
2023-03-21T23:23:36.746Z,5.60
2023-03-21T23:26:24.223Z,5.10
2023-03-21T23:29:12.676Z,5.53
2023-03-21T23:32:00.868Z,8.20
2023-03-21T23:34:48.277Z,5.23
2023-03-21T23:37:35.813Z,8.07
2023-03-21T23:40:23.714Z,7.10
2023-03-21T23:43:11.210Z,5.83
2023-03-21T23:45:59.784Z,7.07
2023-03-21T23:48:47.830Z,6.23
2023-03-21T23:51:35.456Z,6.87
2023-03-21T23:54:22.881Z,6.77
2023-03-21T23:57:11.468Z,8.40
2023-03-21T23:59:58.981Z,5.83
